Time;durP1;ratioP1;P1;durP2;ratioP2;P2;SDS_P1;SDS_P2;PMS_P1;PMS_P2;Temp;Humidity;BMP_temperature;BMP_pressure;BME280_temperature;BME280_humidity;BME280_pressure;Samples;Min_cycle;Max_cycle;Signal;HPM_P1;HPM_P2
2022/11/14 03:01:49;;;;;;;26.87;24.27;;;1.10;99.90;;;;;;5374395;23;20496;-82
2022/11/14 03:04:34;;;;;;;26.73;24.10;;;1.20;99.90;;;;;;4915138;29;20955;-83
2022/11/14 03:07:20;;;;;;;27.20;24.40;;;1.20;99.90;;;;;;4921118;29;20435;-82
2022/11/14 03:10:06;;;;;;;26.80;24.20;;;1.20;99.90;;;;;;4921448;29;20535;-83
2022/11/14 03:12:53;;;;;;;25.50;23.30;;;1.10;99.90;;;;;;4902598;29;20445;-82
2022/11/14 03:15:39;;;;;;;25.67;23.27;;;1.10;99.90;;;;;;4897778;29;20505;-82
2022/11/14 03:18:25;;;;;;;25.70;23.33;;;1.10;99.90;;;;;;4902420;29;20442;-82
2022/11/14 03:21:14;;;;;;;27.07;24.47;;;1.10;99.90;;;;;;4900309;29;20481;-82
2022/11/14 03:24:00;;;;;;;25.63;23.23;;;1.10;99.90;;;;;;4902637;29;20572;-82
2022/11/14 03:26:45;;;;;;;26.53;24.00;;;1.10;99.90;;;;;;4897338;29;20439;-82
2022/11/14 03:29:31;;;;;;;25.53;23.17;;;1.10;99.90;;;;;;4895069;29;20802;-83
2022/11/14 03:32:17;;;;;;;24.63;22.30;;;1.00;99.90;;;;;;4901873;29;20514;-83
2022/11/14 03:35:04;;;;;;;26.47;23.97;;;1.00;99.90;;;;;;4901682;29;20673;-82
2022/11/14 03:37:50;;;;;;;27.57;24.97;;;1.00;99.90;;;;;;4902326;29;20497;-82
2022/11/14 03:40:39;;;;;;;24.90;22.53;;;1.00;99.90;;;;;;4894751;29;20860;-83
2022/11/14 03:43:24;;;;;;;25.87;23.37;;;1.00;99.90;;;;;;4902351;29;20794;-82
2022/11/14 03:46:10;;;;;;;27.23;24.57;;;0.90;99.90;;;;;;4901857;29;20440;-82
2022/11/14 03:48:55;;;;;;;26.43;23.83;;;0.90;99.90;;;;;;4902039;29;20807;-82
2022/11/14 03:51:42;;;;;;;26.53;23.87;;;0.90;99.90;;;;;;4895711;29;20458;-84
2022/11/14 03:54:27;;;;;;;25.90;23.20;;;1.00;99.90;;;;;;4893671;29;20446;-84
2022/11/14 03:57:13;;;;;;;24.33;22.13;;;1.00;99.90;;;;;;4901819;29;20437;-83
2022/11/14 03:59:58;;;;;;;27.23;24.53;;;1.10;99.90;;;;;;4897281;29;20484;-81
2022/11/14 04:02:44;;;;;;;25.33;22.83;;;1.20;99.90;;;;;;4902551;29;20462;-82
2022/11/14 04:05:29;;;;;;;24.00;21.87;;;1.30;99.90;;;;;;4894605;29;20434;-81
2022/11/14 04:08:17;;;;;;;24.27;22.17;;;1.40;99.90;;;;;;4900995;29;20434;-81
2022/11/14 04:11:02;;;;;;;25.87;23.47;;;1.40;99.90;;;;;;4901948;29;20457;-82
2022/11/14 04:13:48;;;;;;;25.30;22.93;;;1.40;99.90;;;;;;4900477;29;20432;-82
2022/11/14 04:16:33;;;;;;;25.17;22.87;;;1.40;99.90;;;;;;4885768;29;20427;-83
2022/11/14 04:19:19;;;;;;;26.73;24.30;;;1.50;99.90;;;;;;4900694;29;20429;-83
2022/11/14 04:22:05;;;;;;;25.70;23.30;;;1.50;99.90;;;;;;4899762;29;20449;-84
2022/11/14 04:24:51;;;;;;;26.20;23.73;;;1.50;99.90;;;;;;4899735;29;20491;-84
2022/11/14 04:27:36;;;;;;;26.73;24.23;;;1.50;99.90;;;;;;4900150;29;20548;-85
2022/11/14 04:30:22;;;;;;;28.23;25.57;;;1.60;99.90;;;;;;4900397;29;20439;-84
2022/11/14 04:33:08;;;;;;;26.57;24.13;;;1.60;99.90;;;;;;4900168;29;20579;-86
2022/11/14 04:35:54;;;;;;;25.87;23.53;;;1.70;99.90;;;;;;4900309;29;20465;-85
2022/11/14 04:38:39;;;;;;;25.90;23.50;;;1.70;99.90;;;;;;4900633;29;20424;-85
2022/11/14 04:41:26;;;;;;;24.37;22.17;;;1.80;99.90;;;;;;4901417;29;20500;-85
2022/11/14 04:44:11;;;;;;;23.87;21.77;;;1.70;99.90;;;;;;4902296;29;20513;-85
2022/11/14 04:46:57;;;;;;;23.23;21.37;;;1.60;99.90;;;;;;4905769;29;20523;-85
2022/11/14 04:49:42;;;;;;;22.87;20.97;;;1.60;99.90;;;;;;4902437;29;20446;-84
2022/11/14 04:52:28;;;;;;;22.67;20.87;;;1.60;99.90;;;;;;4905933;29;20476;-85
2022/11/14 04:55:14;;;;;;;22.27;20.37;;;1.60;99.90;;;;;;4901177;29;20481;-84
2022/11/14 04:58:01;;;;;;;23.53;21.53;;;1.50;99.90;;;;;;4899631;29;20522;-83
2022/11/14 05:00:46;;;;;;;24.63;22.63;;;1.50;99.90;;;;;;4899470;29;20480;-83
2022/11/14 05:03:32;;;;;;;23.07;21.17;;;1.50;99.90;;;;;;4899400;29;20493;-83
2022/11/14 05:06:17;;;;;;;23.97;21.97;;;1.60;99.90;;;;;;4899418;29;20460;-83
2022/11/14 05:09:03;;;;;;;22.40;20.57;;;1.60;99.90;;;;;;4899625;29;20862;-82
2022/11/14 05:11:48;;;;;;;23.50;21.60;;;1.60;99.90;;;;;;4899759;29;20524;-82
2022/11/14 05:14:35;;;;;;;24.17;22.07;;;1.60;99.90;;;;;;4897905;29;20810;-83
2022/11/14 05:17:21;;;;;;;22.77;20.97;;;1.70;99.90;;;;;;4899312;29;20472;-83
2022/11/14 05:20:07;;;;;;;23.37;21.47;;;1.70;99.90;;;;;;4899187;29;20483;-83
2022/11/14 05:22:54;;;;;;;22.63;20.90;;;1.80;99.90;;;;;;4899406;29;20429;-83
2022/11/14 05:25:40;;;;;;;22.90;21.10;;;1.80;99.90;;;;;;4883644;29;20441;-83
2022/11/14 05:28:26;;;;;;;23.47;21.57;;;1.90;99.90;;;;;;4886183;29;20460;-83
2022/11/14 05:31:16;;;;;;;23.63;21.73;;;1.90;99.90;;;;;;4882173;29;20459;-82
2022/11/14 05:34:02;;;;;;;23.60;21.60;;;1.90;99.90;;;;;;4889444;29;20474;-82
2022/11/14 05:36:47;;;;;;;24.07;22.07;;;2.00;99.90;;;;;;4901305;29;20443;-83
2022/11/14 05:39:33;;;;;;;23.63;21.70;;;2.00;99.90;;;;;;4899074;29;20431;-83
2022/11/14 05:42:18;;;;;;;23.00;21.13;;;2.10;99.90;;;;;;4899491;29;20469;-83
2022/11/14 05:45:05;;;;;;;23.17;21.20;;;2.20;99.90;;;;;;4901305;29;20489;-83
2022/11/14 05:47:53;;;;;;;22.23;20.53;;;2.30;99.90;;;;;;4899248;29;20842;-83
2022/11/14 05:50:39;;;;;;;22.10;20.50;;;2.40;99.90;;;;;;4895818;29;20943;-83
2022/11/14 05:53:25;;;;;;;23.10;21.30;;;2.50;99.90;;;;;;4898686;29;20953;-83
2022/11/14 05:56:12;;;;;;;23.43;21.63;;;2.50;99.90;;;;;;4901533;29;20436;-83
2022/11/14 05:58:57;;;;;;;24.57;22.37;;;2.50;99.90;;;;;;4900816;29;20437;-83
2022/11/14 06:01:43;;;;;;;24.50;22.40;;;2.50;99.90;;;;;;4896855;29;20487;-83
2022/11/14 06:04:30;;;;;;;23.50;21.63;;;2.50;99.90;;;;;;4899038;29;20436;-83
2022/11/14 06:07:16;;;;;;;24.67;22.77;;;2.50;99.90;;;;;;4898702;29;20441;-83
2022/11/14 06:10:02;;;;;;;24.40;22.33;;;2.50;99.90;;;;;;4900742;29;20460;-83
2022/11/14 06:12:47;;;;;;;24.77;22.87;;;2.50;99.90;;;;;;4898420;29;20447;-83
2022/11/14 06:15:32;;;;;;;24.27;22.37;;;2.60;99.90;;;;;;4899399;29;20993;-83
2022/11/14 06:18:18;;;;;;;21.83;20.23;;;2.70;99.90;;;;;;4898745;29;20432;-84
2022/11/14 06:21:07;;;;;;;23.00;21.20;;;2.90;99.90;;;;;;4898397;29;20483;-83
2022/11/14 06:23:53;;;;;;;23.03;21.27;;;2.90;99.90;;;;;;4898343;29;20972;-84
2022/11/14 06:26:38;;;;;;;23.50;21.60;;;3.00;99.90;;;;;;4901434;29;20423;-86
2022/11/14 06:29:23;;;;;;;22.33;20.53;;;3.10;99.90;;;;;;4902791;29;20436;-80
2022/11/14 06:32:09;;;;;;;22.37;20.77;;;3.10;99.90;;;;;;4898815;29;20808;-84
2022/11/14 06:34:55;;;;;;;23.90;22.00;;;3.20;99.90;;;;;;4899286;29;20441;-84
2022/11/14 06:37:41;;;;;;;22.47;20.77;;;3.20;99.90;;;;;;4893427;29;20219;-84
2022/11/14 06:40:27;;;;;;;23.33;21.53;;;3.20;99.90;;;;;;4899127;29;20484;-84
2022/11/14 06:43:12;;;;;;;23.77;21.87;;;3.20;99.90;;;;;;4898884;29;20220;-84
2022/11/14 06:45:58;;;;;;;23.40;21.60;;;3.20;99.90;;;;;;4899207;29;20440;-84
2022/11/14 06:48:45;;;;;;;22.23;20.57;;;3.30;99.90;;;;;;4893751;29;20218;-84
2022/11/14 06:51:30;;;;;;;22.23;20.53;;;3.30;99.90;;;;;;4891506;29;20228;-82
2022/11/14 06:54:17;;;;;;;22.67;20.77;;;3.40;99.90;;;;;;4899167;29;20833;-84
2022/11/14 06:57:03;;;;;;;21.33;19.73;;;3.40;99.90;;;;;;4899849;29;20322;-83
2022/11/14 06:59:48;;;;;;;21.07;19.47;;;3.40;99.90;;;;;;4899388;29;20263;-85
2022/11/14 07:02:33;;;;;;;22.53;20.73;;;3.50;99.90;;;;;;4892239;29;20235;-85
2022/11/14 07:05:19;;;;;;;22.03;20.43;;;3.50;99.90;;;;;;4898522;29;20219;-84
2022/11/14 07:08:04;;;;;;;22.20;20.40;;;3.60;99.90;;;;;;4898499;29;20253;-84
2022/11/14 07:10:51;;;;;;;21.77;20.20;;;3.60;99.90;;;;;;4897675;29;20637;-84
2022/11/14 07:13:37;;;;;;;22.33;20.53;;;3.60;99.90;;;;;;4898361;29;20207;-84
2022/11/14 07:16:25;;;;;;;21.57;19.87;;;3.60;99.90;;;;;;4898375;29;20252;-84
2022/11/14 07:19:11;;;;;;;21.07;19.57;;;3.60;99.90;;;;;;4896782;29;20396;-85
2022/11/14 07:21:56;;;;;;;21.73;20.03;;;3.70;99.90;;;;;;4895673;29;20238;-85
2022/11/14 07:24:41;;;;;;;21.23;19.67;;;3.80;99.90;;;;;;4898075;29;20207;-85
2022/11/14 07:27:28;;;;;;;20.80;19.30;;;3.80;99.90;;;;;;4896609;29;20227;-86
2022/11/14 07:30:14;;;;;;;22.03;20.27;;;3.80;99.90;;;;;;4897478;29;20235;-85
2022/11/14 07:33:00;;;;;;;22.50;20.60;;;3.90;99.90;;;;;;4894412;29;20215;-85
2022/11/14 07:35:45;;;;;;;22.07;20.37;;;4.00;99.90;;;;;;4897544;29;20212;-86
2022/11/14 07:38:31;;;;;;;21.53;19.93;;;4.00;99.90;;;;;;4897993;29;20224;-86
2022/11/14 07:41:18;;;;;;;21.07;19.47;;;4.00;99.90;;;;;;4907196;29;20731;-85
2022/11/14 07:44:05;;;;;;;21.00;19.50;;;4.00;99.90;;;;;;4901900;29;20231;-86
2022/11/14 07:46:50;;;;;;;21.40;19.80;;;4.10;99.90;;;;;;4900889;29;20220;-85
2022/11/14 07:49:36;;;;;;;21.03;19.33;;;4.10;99.90;;;;;;4894711;29;20681;-86
2022/11/14 07:52:21;;;;;;;21.30;19.70;;;4.20;99.90;;;;;;4901234;29;20247;-86
2022/11/14 07:55:07;;;;;;;21.93;20.13;;;4.30;99.90;;;;;;4900945;29;20280;-86
2022/11/14 07:57:54;;;;;;;21.47;19.70;;;4.30;99.90;;;;;;4901332;29;20268;-86
2022/11/14 08:00:41;;;;;;;21.10;19.40;;;4.30;99.90;;;;;;4894763;29;20256;-85
2022/11/14 08:03:26;;;;;;;20.57;18.97;;;4.40;99.90;;;;;;4900985;29;20208;-84
2022/11/14 08:06:14;;;;;;;20.37;18.90;;;4.40;99.90;;;;;;4899886;29;20696;-85
2022/11/14 08:08:59;;;;;;;22.60;20.83;;;4.30;99.90;;;;;;4900804;29;20211;-86
2022/11/14 08:11:48;;;;;;;22.17;20.17;;;4.20;99.90;;;;;;4882177;29;20763;-85
2022/11/14 08:14:33;;;;;;;22.53;20.50;;;4.20;99.90;;;;;;4893748;29;20203;-86
2022/11/14 08:17:21;;;;;;;21.97;20.27;;;4.20;99.90;;;;;;4901319;29;20722;-85
2022/11/14 08:20:09;;;;;;;21.97;20.27;;;4.30;99.90;;;;;;4900987;29;20214;-85
2022/11/14 08:22:55;;;;;;;21.10;19.60;;;4.30;99.90;;;;;;4899524;29;20215;-83
2022/11/14 08:25:40;;;;;;;21.20;19.60;;;4.40;99.90;;;;;;4898191;29;20218;-84
2022/11/14 08:28:26;;;;;;;22.63;20.87;;;4.40;99.90;;;;;;4900367;29;20336;-84
2022/11/14 08:31:12;;;;;;;24.00;22.00;;;4.30;99.90;;;;;;4899578;29;20253;-84
2022/11/14 08:33:59;;;;;;;24.50;22.60;;;4.30;99.90;;;;;;4896364;29;20216;-83
2022/11/14 08:36:45;;;;;;;24.00;22.07;;;4.40;99.90;;;;;;4900146;29;20219;-84
2022/11/14 08:39:30;;;;;;;24.37;22.37;;;4.40;99.90;;;;;;4895099;29;20260;-84
2022/11/14 08:42:16;;;;;;;25.07;23.03;;;4.40;99.90;;;;;;4901561;29;20282;-83
2022/11/14 08:45:01;;;;;;;24.50;22.40;;;4.50;99.90;;;;;;4900306;29;20215;-84
2022/11/14 08:47:51;;;;;;;24.73;22.90;;;4.50;99.90;;;;;;4895269;29;20316;-83
2022/11/14 08:50:38;;;;;;;23.87;22.00;;;4.60;99.90;;;;;;4895624;29;20219;-83
2022/11/14 08:53:24;;;;;;;23.13;21.43;;;4.70;99.90;;;;;;4899006;29;20212;-84
2022/11/14 08:56:10;;;;;;;23.53;21.73;;;4.80;99.90;;;;;;4899463;29;20263;-84
2022/11/14 08:58:56;;;;;;;23.57;21.57;;;5.00;99.90;;;;;;4899937;29;20344;-84
2022/11/14 09:01:41;;;;;;;21.27;19.80;;;5.20;99.90;;;;;;4899585;29;20248;-84
2022/11/14 09:04:27;;;;;;;21.27;19.77;;;5.60;99.90;;;;;;4899368;29;20417;-84
2022/11/14 09:07:13;;;;;;;20.00;18.80;;;5.80;99.90;;;;;;4899311;29;20215;-84
2022/11/14 09:09:59;;;;;;;20.00;18.80;;;6.20;99.90;;;;;;4900237;29;20212;-84
2022/11/14 09:12:44;;;;;;;20.60;19.30;;;6.40;99.90;;;;;;4898096;29;20333;-84
2022/11/14 09:15:32;;;;;;;21.57;20.10;;;6.50;99.90;;;;;;4897113;29;20276;-84
2022/11/14 09:18:18;;;;;;;22.60;21.00;;;6.50;99.90;;;;;;4900176;29;20297;-84
2022/11/14 09:21:06;;;;;;;22.03;20.43;;;6.50;99.90;;;;;;4896078;29;20231;-84
2022/11/14 09:23:53;;;;;;;23.70;21.90;;;6.50;99.90;;;;;;4899819;29;20217;-84
2022/11/14 09:26:38;;;;;;;23.53;21.73;;;6.40;99.90;;;;;;4898929;29;20212;-84
2022/11/14 09:29:24;;;;;;;23.37;21.73;;;6.40;99.90;;;;;;4899100;29;20212;-84
2022/11/14 09:32:09;;;;;;;22.77;21.17;;;6.40;99.90;;;;;;4896832;29;20307;-84
2022/11/14 09:34:54;;;;;;;21.07;19.67;;;6.40;99.90;;;;;;4899238;29;20208;-85
2022/11/14 09:37:41;;;;;;;21.30;19.80;;;6.50;99.90;;;;;;4900031;29;20286;-87
2022/11/14 09:40:28;;;;;;;21.00;19.50;;;6.50;99.90;;;;;;4900977;29;20253;-88
2022/11/14 09:43:38;;;;;;;20.80;19.30;;;6.60;99.90;;;;;;4900985;29;20258;-87
2022/11/14 09:46:26;;;;;;;17.70;16.53;;;6.70;99.90;;;;;;4900192;29;20682;-87
2022/11/14 09:49:24;;;;;;;17.60;16.50;;;7.20;99.90;;;;;;4898768;29;20217;-86
2022/11/14 09:52:16;;;;;;;17.10;16.10;;;7.50;99.90;;;;;;4900086;29;20230;-88
2022/11/14 09:55:09;;;;;;;16.60;15.63;;;7.80;99.90;;;;;;4896243;29;20290;-87
2022/11/14 09:57:57;;;;;;;10.73;9.83;;;8.00;99.90;;;;;;4900699;29;20725;-85
2022/11/14 10:00:50;;;;;;;5.63;5.07;;;8.40;99.90;;;;;;4899652;29;20682;-87
2022/11/14 10:03:47;;;;;;;5.03;4.63;;;8.60;99.90;;;;;;4893516;29;20209;-86
2022/11/14 10:06:35;;;;;;;4.40;4.10;;;8.90;99.90;;;;;;4901237;29;20232;-86
2022/11/14 10:09:50;;;;;;;4.60;4.20;;;9.10;99.90;;;;;;4900790;29;20225;-85
2022/11/14 10:12:44;;;;;;;3.90;3.70;;;9.30;99.90;;;;;;4894932;29;20227;-84
2022/11/14 10:15:36;;;;;;;4.10;3.80;;;9.40;99.90;;;;;;4898267;29;20228;-85
2022/11/14 10:18:36;;;;;;;4.10;3.80;;;9.40;99.90;;;;;;4898363;29;20220;-85
2022/11/14 10:21:38;;;;;;;3.83;3.53;;;9.40;99.90;;;;;;4896686;29;20707;-85
2022/11/14 10:24:40;;;;;;;6.00;5.60;;;9.50;99.90;;;;;;4897190;29;20255;-85
2022/11/14 10:27:30;;;;;;;6.90;6.40;;;9.50;99.90;;;;;;4897989;29;20203;-86
2022/11/14 10:30:18;;;;;;;6.13;5.73;;;9.60;99.90;;;;;;4900626;29;20212;-86
2022/11/14 10:33:16;;;;;;;6.00;5.60;;;9.70;99.90;;;;;;4898230;29;20207;-86
2022/11/14 10:36:13;;;;;;;7.43;6.93;;;9.70;99.90;;;;;;4893377;29;20740;-84
2022/11/14 10:39:06;;;;;;;6.30;5.90;;;9.80;99.90;;;;;;4900114;29;20218;-84
2022/11/14 10:41:58;;;;;;;5.97;5.57;;;9.80;99.90;;;;;;4897742;29;20231;-84
2022/11/14 10:45:05;;;;;;;5.70;5.30;;;9.80;99.90;;;;;;4898376;29;20235;-84
2022/11/14 10:47:55;;;;;;;4.30;4.00;;;10.00;99.90;;;;;;4893894;29;20663;-84
2022/11/14 10:50:49;;;;;;;6.83;6.40;;;10.00;99.90;;;;;;4897821;29;20220;-85
2022/11/14 10:53:49;;;;;;;7.30;6.80;;;10.10;99.90;;;;;;4891412;29;20203;-84
2022/11/14 10:56:46;;;;;;;7.27;6.77;;;10.20;99.90;;;;;;4898179;29;20293;-84
2022/11/14 10:59:32;;;;;;;6.40;5.80;;;10.30;99.90;;;;;;4898057;29;20574;-84
2022/11/14 11:02:18;;;;;;;7.00;6.60;;;10.30;99.90;;;;;;4897814;29;20287;-85
2022/11/14 11:05:17;;;;;;;7.10;6.60;;;10.40;99.90;;;;;;4898210;29;20216;-85
2022/11/14 11:14:26;;;;;;;6.47;5.97;;;10.40;99.90;;;;;;4898034;29;20599;-85
2022/11/14 11:17:23;;;;;;;7.67;7.07;;;10.50;99.90;;;;;;4901289;29;20280;-84
2022/11/14 11:20:31;;;;;;;7.43;6.93;;;10.50;99.90;;;;;;4902015;29;20211;-84
2022/11/14 11:23:57;;;;;;;7.53;7.03;;;10.50;99.90;;;;;;4900476;29;20218;-84
2022/11/14 11:26:48;;;;;;;6.23;5.83;;;10.50;99.90;;;;;;4895579;29;20204;-84
2022/11/14 11:29:38;;;;;;;6.67;6.17;;;10.40;99.90;;;;;;4901189;29;20354;-84
2022/11/14 11:32:36;;;;;;;;;;;;;;;;;;;;;
2022/11/14 11:35:33;;;;;;;6.70;6.10;;;10.40;99.90;;;;;;4901743;29;20231;-84
2022/11/14 11:38:34;;;;;;;;;;;;;;;;;;;;;
2022/11/14 11:41:28;;;;;;;7.07;6.57;;;10.30;99.90;;;;;;4901100;29;20235;-84
2022/11/14 11:44:17;;;;;;;7.20;6.70;;;10.40;99.90;;;;;;4900488;29;20207;-84
2022/11/14 11:47:09;;;;;;;7.53;6.93;;;10.40;99.90;;;;;;4900792;29;20213;-85
2022/11/14 11:49:54;;;;;;;7.23;6.73;;;10.40;99.90;;;;;;4900666;29;20268;-84
2022/11/14 11:52:48;;;;;;;7.20;6.60;;;10.40;99.90;;;;;;4894572;29;20235;-85
2022/11/14 11:55:38;;;;;;;7.10;6.60;;;10.40;99.90;;;;;;4900780;29;20247;-85
2022/11/14 11:58:33;;;;;;;7.33;6.73;;;10.50;99.90;;;;;;4900918;29;20722;-84
2022/11/14 12:01:19;;;;;;;6.63;6.13;;;10.60;99.90;;;;;;4900541;29;20235;-85
2022/11/14 12:04:05;;;;;;;7.90;7.20;;;10.60;99.90;;;;;;4900816;29;20203;-85
2022/11/14 12:07:04;;;;;;;7.27;6.67;;;10.70;99.90;;;;;;4896271;29;20272;-84
2022/11/14 12:13:26;;;;;;;5.80;5.30;;;10.70;99.90;;;;;;5057753;23;20392;-87
2022/11/14 12:16:22;;;;;;;12.10;11.20;;;10.80;99.90;;;;;;4919794;29;20214;-87
2022/11/14 12:19:35;;;;;;;10.80;10.10;;;11.10;99.90;;;;;;4919331;29;20683;-87
2022/11/14 12:22:42;;;;;;;5.83;5.43;;;11.50;99.90;;;;;;4918566;29;20237;-88
2022/11/14 12:25:44;;;;;;;3.73;3.43;;;11.90;99.90;;;;;;4911744;29;20258;-87
2022/11/14 12:28:57;;;;;;;5.57;5.17;;;12.30;99.90;;;;;;4911588;29;20216;-87
2022/11/14 12:31:45;;;;;;;4.37;4.07;;;12.50;99.90;;;;;;4912474;29;20316;-87
2022/11/14 12:34:34;;;;;;;8.30;7.70;;;12.50;99.90;;;;;;4910872;29;20355;-88
2022/11/14 12:37:23;;;;;;;4.67;4.27;;;12.40;99.90;;;;;;4918562;29;20222;-88
2022/11/14 12:40:23;;;;;;;10.30;9.70;;;12.40;99.90;;;;;;4918170;29;20277;-88
2022/11/14 12:43:30;;;;;;;3.77;3.47;;;12.30;99.90;;;;;;4918232;29;20288;-87
2022/11/14 12:46:16;;;;;;;9.87;9.13;;;12.20;99.90;;;;;;4918146;29;20215;-87
2022/11/14 12:49:39;;;;;;;8.77;8.17;;;12.10;99.90;;;;;;4918300;29;20229;-87
2022/11/14 12:52:48;;;;;;;11.03;10.40;;;12.10;99.90;;;;;;4917385;29;20225;-88
2022/11/14 12:56:07;;;;;;;10.20;9.57;;;11.90;99.90;;;;;;4917898;29;20220;-87
2022/11/14 12:59:10;;;;;;;12.00;11.20;;;11.80;99.90;;;;;;4913307;29;20213;-88
2022/11/14 13:02:42;;;;;;;5.43;4.93;;;11.80;99.90;;;;;;4917800;29;20227;-83
2022/11/14 13:05:48;;;;;;;9.40;8.60;;;11.80;99.90;;;;;;4879589;29;20214;-80
2022/11/14 13:09:00;;;;;;;9.20;8.60;;;11.90;99.90;;;;;;4884424;29;20848;-84
2022/11/14 13:24:26;;;;;;;12.13;11.43;;;12.20;99.90;;;;;;4919383;29;20300;-84
2022/11/14 13:27:26;;;;;;;12.27;11.33;;;12.20;99.90;;;;;;4919206;29;20243;-82
2022/11/14 13:30:11;;;;;;;11.73;11.03;;;12.20;99.90;;;;;;4909232;29;20262;-84
2022/11/14 13:32:57;;;;;;;11.57;10.87;;;12.20;99.90;;;;;;4919300;29;20800;-86
2022/11/14 13:35:50;;;;;;;11.57;10.87;;;12.20;99.90;;;;;;4913423;29;20246;-82
2022/11/14 13:39:16;;;;;;;11.87;11.00;;;12.20;99.90;;;;;;4912262;29;20216;-84
2022/11/14 13:42:33;;;;;;;12.10;11.40;;;12.20;99.90;;;;;;4917427;29;20236;-86
2022/11/14 13:45:45;;;;;;;11.87;11.17;;;12.30;99.90;;;;;;4921147;29;20349;-80
2022/11/14 13:48:56;;;;;;;11.70;11.00;;;12.30;99.90;;;;;;4914390;29;20232;-82
2022/11/14 13:51:41;;;;;;;12.10;11.30;;;12.40;99.90;;;;;;4913782;29;20236;-83
2022/11/14 13:54:28;;;;;;;12.50;11.70;;;12.40;99.90;;;;;;4920048;29;20202;-84
2022/11/14 13:57:21;;;;;;;11.60;10.90;;;12.50;99.90;;;;;;4917920;29;20217;-84
2022/11/14 14:00:12;;;;;;;11.80;11.10;;;12.50;99.90;;;;;;4918365;29;20210;-85
2022/11/14 14:03:11;;;;;;;11.90;11.20;;;12.50;99.90;;;;;;4920618;29;20225;-85
2022/11/14 14:06:17;;;;;;;12.00;11.30;;;12.50;99.90;;;;;;4916342;29;20282;-84
2022/11/14 14:09:18;;;;;;;7.50;7.00;;;12.50;99.90;;;;;;4915885;29;20534;-84
2022/11/14 14:12:25;;;;;;;4.77;4.37;;;12.50;99.90;;;;;;4919845;29;20581;-84
2022/11/14 14:15:21;;;;;;;5.90;5.50;;;12.50;99.90;;;;;;4919387;29;20214;-85
2022/11/14 14:18:12;;;;;;;4.00;3.60;;;12.50;99.90;;;;;;4919533;29;20255;-84
2022/11/14 14:21:05;;;;;;;6.90;6.23;;;12.50;99.90;;;;;;4920316;29;20233;-84
2022/11/14 14:24:02;;;;;;;4.30;3.90;;;12.40;99.90;;;;;;4914430;29;20222;-84
2022/11/14 14:27:00;;;;;;;5.53;5.13;;;12.30;99.90;;;;;;4914255;29;20220;-84
2022/11/14 14:29:57;;;;;;;5.57;5.17;;;12.20;99.90;;;;;;4913997;29;20220;-84
2022/11/14 14:32:43;;;;;;;12.07;11.33;;;12.10;99.90;;;;;;4916243;29;20229;-83
2022/11/14 14:35:31;;;;;;;12.40;11.60;;;11.90;99.90;;;;;;4915847;29;20229;-85
2022/11/14 14:38:23;;;;;;;11.43;10.67;;;11.90;99.90;;;;;;4919331;29;20221;-84
2022/11/14 14:41:13;;;;;;;7.43;6.93;;;11.80;99.90;;;;;;4918012;29;20243;-81
2022/11/14 14:43:59;;;;;;;7.77;7.27;;;11.60;99.90;;;;;;4915451;29;20229;-80
2022/11/14 14:46:47;;;;;;;12.77;11.97;;;11.50;99.90;;;;;;4914416;29;20227;-80
2022/11/14 14:49:36;;;;;;;10.73;10.03;;;11.40;99.90;;;;;;4911882;29;20232;-79
2022/11/14 14:52:28;;;;;;;3.60;3.30;;;11.30;99.90;;;;;;4922828;29;20305;-81
2022/11/14 14:55:21;;;;;;;12.97;12.13;;;11.20;99.90;;;;;;4919780;29;20700;-83
2022/11/14 14:58:16;;;;;;;6.70;6.20;;;11.20;99.90;;;;;;4922257;29;20313;-81
2022/11/14 15:01:03;;;;;;;9.90;9.20;;;11.20;99.90;;;;;;4921534;29;20597;-81
2022/11/14 15:03:57;;;;;;;11.03;10.33;;;11.20;99.90;;;;;;4915690;29;20220;-82
2022/11/14 15:06:46;;;;;;;5.60;4.67;;;11.20;99.90;;;;;;4928918;29;20211;-82
2022/11/14 15:09:31;;;;;;;8.37;7.67;;;11.20;99.90;;;;;;4916418;29;20220;-82
2022/11/14 15:12:17;;;;;;;4.40;4.00;;;11.10;99.90;;;;;;4923758;29;20251;-79
2022/11/14 15:15:03;;;;;;;5.17;4.70;;;11.10;99.90;;;;;;4923174;29;20705;-79
2022/11/14 15:17:50;;;;;;;6.47;5.90;;;11.00;99.90;;;;;;4917743;29;20720;-83
2022/11/14 15:20:36;;;;;;;8.33;7.73;;;11.00;99.90;;;;;;4919091;29;20216;-80
2022/11/14 15:23:22;;;;;;;14.63;13.70;;;10.90;99.90;;;;;;4921718;29;20306;-81
2022/11/14 15:26:14;;;;;;;13.37;12.47;;;10.80;99.90;;;;;;4918137;29;20212;-81
2022/11/14 15:29:14;;;;;;;13.10;12.30;;;10.70;99.90;;;;;;4921479;29;20589;-81
2022/11/14 15:32:02;;;;;;;13.40;12.60;;;10.60;99.90;;;;;;4917170;29;20275;-80
2022/11/14 15:35:09;;;;;;;8.67;7.90;;;10.50;99.90;;;;;;4915745;29;20215;-82
2022/11/14 15:38:06;;;;;;;5.80;5.30;;;10.40;99.90;;;;;;4920662;29;20247;-81
2022/11/14 15:41:16;;;;;;;5.33;4.80;;;10.40;99.90;;;;;;4918202;29;20245;-80
2022/11/14 15:44:04;;;;;;;10.27;9.57;;;10.30;99.90;;;;;;4918841;29;20301;-78
2022/11/14 15:46:49;;;;;;;11.13;10.23;;;10.30;99.90;;;;;;4921444;29;20215;-82
2022/11/14 15:49:36;;;;;;;5.43;4.13;;;10.20;99.90;;;;;;4912704;29;20719;-82
2022/11/14 15:52:25;;;;;;;13.23;12.43;;;10.20;99.90;;;;;;4920447;29;20222;-79
2022/11/14 15:55:15;;;;;;;7.43;6.80;;;10.10;99.90;;;;;;4916841;29;20206;-81
2022/11/14 15:58:01;;;;;;;6.67;6.13;;;10.10;99.90;;;;;;4906821;29;20220;-83
2022/11/14 16:00:50;;;;;;;5.63;5.13;;;10.00;99.90;;;;;;4906247;29;20230;-83
2022/11/14 16:03:35;;;;;;;6.47;5.90;;;10.00;99.90;;;;;;4903079;29;20302;-82
2022/11/14 16:06:20;;;;;;;15.07;13.97;;;9.90;99.90;;;;;;4907434;29;20700;-84
2022/11/14 16:09:06;;;;;;;13.40;12.50;;;9.80;99.90;;;;;;4906123;29;20207;-83
2022/11/14 16:11:53;;;;;;;13.50;12.60;;;9.90;99.90;;;;;;4913817;29;20241;-82
2022/11/14 16:14:38;;;;;;;13.40;12.60;;;9.90;99.90;;;;;;4915805;29;20688;-82
2022/11/14 16:17:24;;;;;;;10.57;9.80;;;9.80;99.90;;;;;;4921875;29;20571;-83
2022/11/14 16:20:16;;;;;;;12.93;12.13;;;9.80;99.90;;;;;;4919102;29;20234;-82
2022/11/14 16:23:01;;;;;;;14.10;13.00;;;9.80;99.90;;;;;;4919866;29;20254;-82
2022/11/14 16:25:47;;;;;;;14.17;13.20;;;9.80;99.90;;;;;;4918022;29;20286;-82
2022/11/14 16:28:34;;;;;;;15.03;14.00;;;9.80;99.90;;;;;;4918191;29;20210;-82
2022/11/14 16:31:20;;;;;;;13.63;12.73;;;9.80;99.90;;;;;;4918200;29;20259;-82
2022/11/14 16:34:06;;;;;;;7.73;7.03;;;9.70;99.90;;;;;;4921268;29;20219;-83
2022/11/14 16:36:57;;;;;;;7.20;6.50;;;9.70;99.90;;;;;;4918316;29;20586;-82
2022/11/14 16:39:43;;;;;;;5.43;4.40;;;9.70;99.90;;;;;;4913870;29;20279;-83
2022/11/14 16:42:28;;;;;;;6.90;6.30;;;9.80;99.90;;;;;;4911557;29;20727;-82
2022/11/14 16:45:16;;;;;;;5.30;4.80;;;9.70;99.90;;;;;;4918724;29;20211;-83
2022/11/14 16:48:01;;;;;;;8.03;7.40;;;9.60;99.90;;;;;;4921616;29;20219;-83
2022/11/14 16:50:47;;;;;;;14.23;13.13;;;9.60;99.90;;;;;;4920673;29;20354;-82
2022/11/14 16:53:33;;;;;;;6.03;4.77;;;9.70;99.90;;;;;;4921460;29;20206;-84
2022/11/14 16:56:18;;;;;;;4.73;4.30;;;9.60;99.90;;;;;;4921818;29;20591;-82
2022/11/14 16:59:04;;;;;;;8.60;8.00;;;9.50;99.90;;;;;;4921704;29;20215;-82
2022/11/14 17:01:51;;;;;;;8.57;7.87;;;9.60;99.90;;;;;;4920068;29;20364;-83
2022/11/14 17:04:36;;;;;;;8.20;7.50;;;9.60;99.90;;;;;;4911951;29;20311;-83
2022/11/14 17:07:22;;;;;;;7.87;7.27;;;9.60;99.90;;;;;;4917478;29;20270;-83
2022/11/14 17:10:14;;;;;;;13.63;12.83;;;9.50;99.90;;;;;;4917236;29;20588;-82
2022/11/14 17:12:59;;;;;;;13.90;13.00;;;9.50;99.90;;;;;;4920355;29;20223;-84
2022/11/14 17:15:49;;;;;;;13.87;12.67;;;9.50;99.90;;;;;;4915721;29;20717;-81
2022/11/14 17:18:35;;;;;;;13.43;12.40;;;9.50;99.90;;;;;;4910309;29;20218;-81
2022/11/14 17:21:22;;;;;;;13.33;12.53;;;9.40;99.90;;;;;;4919448;29;20238;-84
2022/11/14 17:24:07;;;;;;;12.30;11.50;;;9.30;99.90;;;;;;4920310;29;20229;-83
2022/11/14 17:26:52;;;;;;;6.37;5.77;;;9.30;99.90;;;;;;4918072;29;20230;-80
2022/11/14 17:29:38;;;;;;;6.83;6.23;;;9.30;99.90;;;;;;4913198;29;20219;-82
2022/11/14 17:32:24;;;;;;;5.73;4.73;;;9.30;99.90;;;;;;4917394;29;20287;-82
2022/11/14 17:35:11;;;;;;;5.70;5.10;;;9.30;99.90;;;;;;4915336;29;20231;-83
2022/11/14 17:37:57;;;;;;;5.97;5.03;;;9.30;99.90;;;;;;4917872;29;20210;-83
2022/11/14 17:40:43;;;;;;;6.43;5.83;;;9.30;99.90;;;;;;4910644;29;20214;-82
2022/11/14 17:43:32;;;;;;;5.60;5.00;;;9.20;99.90;;;;;;4909455;29;20222;-83
2022/11/14 17:46:18;;;;;;;5.50;4.80;;;9.20;99.90;;;;;;4916574;29;20568;-82
2022/11/14 17:49:03;;;;;;;5.73;5.13;;;9.20;99.90;;;;;;4916112;29;20735;-83
2022/11/14 17:51:50;;;;;;;6.90;6.13;;;9.20;99.90;;;;;;4918923;29;20234;-83
2022/11/14 17:54:39;;;;;;;6.10;5.40;;;9.20;99.90;;;;;;4913124;29;20718;-82
2022/11/14 17:57:24;;;;;;;6.87;5.00;;;9.20;99.90;;;;;;4918968;29;20418;-83
2022/11/14 18:00:10;;;;;;;6.87;4.93;;;9.30;99.90;;;;;;4914244;29;20219;-81
2022/11/14 18:02:56;;;;;;;5.63;5.03;;;9.30;99.90;;;;;;4922288;29;20255;-82